CLT TRACON Summary / KCLT TAF
CLT TRACON Summary:
High pressure will begin to weaken as a surface boundary moves across the airspace. Mostly VFR conditions with BKN/OVC cirrus clouds today in the CLT TRACON. Surface winds will be from the southeast at 3-5kts . Flight Hazards: Are not expected in the TRACON airspace.

Updated:12/18/2014 12:45 PM
CLT Terminal Aerodrome Forecast:

FTUS42 KGSP 181740
TAFCLT
TAF
KCLT 181740Z 1818/1918 18003KT P6SM SCT080 BKN250
     FM190300 36003KT P6SM SCT250=
CLT TRACON Area Remark:
None.
Convective Gate Forecast / Collaborative Convective Forecast Product / Vertical Wind Profile
Convective Gate Forecast
-->
AIRMETs & SIGMETS/ Southeast Radar loop / Satellite Image (click on image to enlarge)

Southeast Radar Loop

 



USA.gov is the U.S. government's official web portal to all federal, state and local government web resources and services.